Time;durP1;ratioP1;P1;durP2;ratioP2;P2;SDS_P1;SDS_P2;PMS_P1;PMS_P2;Temp;Humidity;BMP_temperature;BMP_pressure;BME280_temperature;BME280_humidity;BME280_pressure;Samples;Min_cycle;Max_cycle;Signal;HPM_P1;HPM_P2
2023/12/20 00:00:58;;;;;;;6.97;5.03;;;;;;;3.12;100.00;100980.44;5020086;28;20110;-81
2023/12/20 00:03:25;;;;;;;7.05;6.70;;;;;;;2.64;100.00;100892.13;5020338;28;20485;-82
2023/12/20 00:05:51;;;;;;;2.08;1.98;;;;;;;2.80;100.00;100935.09;5024302;28;20068;-79
2023/12/20 00:08:17;;;;;;;1.95;1.83;;;;;;;3.12;100.00;100970.94;5021591;28;22536;-80
2023/12/20 00:10:45;;;;;;;10.32;6.55;;;;;;;3.02;100.00;100940.31;5027446;28;20045;-80
2023/12/20 00:13:11;;;;;;;3.45;3.25;;;;;;;3.07;100.00;100963.81;5030635;28;20032;-80
2023/12/20 00:15:37;;;;;;;13.55;12.55;;;;;;;2.45;100.00;100852.53;5028344;28;20049;-79
2023/12/20 00:18:03;;;;;;;0.70;0.70;;;;;;;2.88;100.00;100937.16;5033558;28;20056;-79
2023/12/20 00:20:29;;;;;;;2.70;2.60;;;;;;;2.87;100.00;100961.28;5036949;28;20037;-80
2023/12/20 00:22:57;;;;;;;17.02;7.95;;;;;;;2.90;100.00;100956.25;5036707;28;20072;-81
2023/12/20 00:25:23;;;;;;;7.47;6.97;;;;;;;2.32;100.00;100863.25;5037826;28;20104;-79
2023/12/20 00:27:49;;;;;;;13.98;12.93;;;;;;;2.79;100.00;100922.97;5032847;28;20025;-79
2023/12/20 00:30:14;;;;;;;15.73;14.68;;;;;;;2.58;100.00;100890.19;5021614;28;20136;-82
2023/12/20 00:32:46;;;;;;;5.07;4.82;;;;;;;2.53;100.00;100886.53;5023256;28;20034;-82
2023/12/20 00:35:12;;;;;;;5.07;4.78;;;;;;;2.86;100.00;100949.16;5028393;28;20092;-81
2023/12/20 00:37:38;;;;;;;1.88;1.77;;;;;;;2.65;100.00;100923.28;5025867;28;20060;-81
2023/12/20 00:40:03;;;;;;;14.70;13.25;;;;;;;2.48;100.00;100919.13;5019439;28;20137;-81
2023/12/20 00:42:29;;;;;;;5.30;4.97;;;;;;;2.00;100.00;100830.88;5022271;28;20144;-85
2023/12/20 00:44:55;;;;;;;4.32;4.13;;;;;;;2.37;100.00;100856.53;5025053;28;20034;-83
2023/12/20 00:47:20;;;;;;;4.85;4.55;;;;;;;2.69;100.00;100911.31;5031452;28;20055;-82
2023/12/20 00:49:46;;;;;;;2.05;1.95;;;;;;;1.94;100.00;100789.19;5014083;28;20784;-83
2023/12/20 00:52:11;;;;;;;9.20;6.97;;;;;;;2.18;100.00;100818.69;5025020;28;20114;-85
2023/12/20 00:54:38;;;;;;;1.42;1.38;;;;;;;2.16;100.00;100843.63;5024445;28;20052;-82
2023/12/20 00:57:03;;;;;;;15.13;13.82;;;;;;;2.42;100.00;100878.31;5023135;28;24309;-83
2023/12/20 00:59:29;;;;;;;3.65;3.45;;;;;;;2.20;100.00;100810.94;5024908;28;20396;-79
2023/12/20 01:01:54;;;;;;;14.60;13.10;;;;;;;2.32;100.00;100863.25;5025523;28;20064;-85
2023/12/20 01:04:20;;;;;;;13.70;12.90;;;;;;;2.00;100.00;100829.16;5027772;28;20028;-83
2023/12/20 01:06:45;;;;;;;3.28;3.08;;;;;;;2.46;100.00;100923.38;5023298;28;20045;-85
2023/12/20 01:09:11;;;;;;;2.00;1.90;;;;;;;1.90;100.00;100795.97;5026709;28;20064;-84
2023/12/20 01:11:36;;;;;;;1.92;1.83;;;;;;;2.49;100.00;100866.50;5024835;28;20088;-79
2023/12/20 01:14:02;;;;;;;4.10;3.90;;;;;;;2.45;100.00;100869.78;5031490;28;20140;-82
2023/12/20 01:16:27;;;;;;;1.85;1.75;;;;;;;2.07;100.00;100813.06;5030715;28;20037;-81
2023/12/20 01:18:53;;;;;;;12.70;6.20;;;;;;;2.10;100.00;100828.69;5030587;28;20052;-79
2023/12/20 01:21:18;;;;;;;4.43;4.18;;;;;;;2.46;100.00;100880.22;5030141;28;20583;-80
2023/12/20 01:23:44;;;;;;;0.60;0.60;;;;;;;2.32;100.00;100897.78;5032492;28;20050;-81
2023/12/20 01:26:09;;;;;;;2.17;2.08;;;;;;;2.34;100.00;100848.63;5020806;28;20049;-80
2023/12/20 01:28:35;;;;;;;4.70;4.28;;;;;;;1.99;100.00;100778.22;5023058;28;20104;-79
2023/12/20 01:31:00;;;;;;;7.63;7.10;;;;;;;2.58;100.00;100860.81;5023983;28;20508;-81
2023/12/20 01:33:26;;;;;;;17.35;15.82;;;;;;;1.51;100.00;100678.81;5023424;28;20056;-84
2023/12/20 01:35:51;;;;;;;5.63;5.05;;;;;;;1.59;100.00;100711.03;5024464;28;20657;-77
2023/12/20 01:38:18;;;;;;;8.63;7.72;;;;;;;2.38;100.00;100850.53;5026623;28;20401;-81
2023/12/20 01:40:44;;;;;;;1.77;1.67;;;;;;;2.37;100.00;100863.44;5038718;28;20504;-82
2023/12/20 01:43:12;;;;;;;9.98;9.45;;;;;;;2.37;100.00;100853.06;5032462;28;20052;-81
2023/12/20 01:45:38;;;;;;;2.50;2.40;;;;;;;2.46;100.00;100866.41;5034538;28;20099;-81
2023/12/20 01:48:05;;;;;;;1.88;1.80;;;;;;;2.43;100.00;100842.94;5033775;28;20513;-80
2023/12/20 01:50:31;;;;;;;5.93;5.57;;;;;;;1.98;100.00;100767.81;5044518;28;20132;-78
2023/12/20 01:53:00;;;;;;;2.63;2.42;;;;;;;1.89;100.00;100745.91;5034627;28;20053;-79
2023/12/20 01:55:29;;;;;;;19.63;17.88;;;;;;;2.50;100.00;100869.13;5024299;28;20068;-81
2023/12/20 01:57:56;;;;;;;2.50;2.40;;;;;;;2.42;100.00;100849.84;5025602;28;20045;-81
2023/12/20 02:00:26;;;;;;;3.03;2.90;;;;;;;2.42;100.00;100838.59;5025082;28;20041;-78
2023/12/20 02:02:54;;;;;;;5.57;5.28;;;;;;;2.03;100.00;100748.16;5023172;28;20056;-78
2023/12/20 02:05:21;;;;;;;43.03;20.60;;;;;;;1.97;100.00;100753.13;5031816;28;20833;-82
2023/12/20 02:07:46;;;;;;;3.58;3.35;;;;;;;1.87;100.00;100742.38;5025195;28;20045;-82
2023/12/20 02:10:13;;;;;;;5.82;3.92;;;;;;;2.47;100.00;100840.53;5039812;28;20040;-82
2023/12/20 02:12:40;;;;;;;11.98;11.07;;;;;;;2.60;100.00;100841.91;5028441;28;20071;-82
2023/12/20 02:15:06;;;;;;;4.78;1.10;;;;;;;2.50;100.00;100803.50;5033613;28;20056;-80
2023/12/20 02:17:34;;;;;;;3.67;3.47;;;;;;;2.44;100.00;100773.09;5029015;28;20076;-81
2023/12/20 02:19:59;;;;;;;33.15;6.35;;;;;;;2.19;100.00;100736.72;5041737;28;20046;-82
2023/12/20 02:22:25;;;;;;;0.90;0.90;;;;;;;2.07;100.00;100719.00;5025483;28;20044;-78
2023/12/20 02:24:50;;;;;;;6.03;5.57;;;;;;;2.07;100.00;100719.00;5027750;28;20055;-80
2023/12/20 02:27:18;;;;;;;1.95;1.85;;;;;;;2.01;100.00;100700.63;5008086;28;20058;-81
2023/12/20 02:29:43;;;;;;;2.25;2.15;;;;;;;2.53;100.00;100794.16;5032702;28;20497;-81
2023/12/20 02:32:10;;;;;;;0.52;0.52;;;;;;;2.48;100.00;100811.25;5025190;28;20073;-83
2023/12/20 02:34:35;;;;;;;24.67;14.60;;;;;;;2.44;100.00;100804.16;5032273;28;20436;-81
2023/12/20 02:37:03;;;;;;;12.82;11.98;;;;;;;1.88;100.00;100674.28;5034159;28;20041;-81
2023/12/20 02:39:30;;;;;;;29.65;24.80;;;;;;;2.15;100.00;100715.00;5029399;28;20682;-78
2023/12/20 02:41:57;;;;;;;3.22;3.03;;;;;;;1.85;100.00;100666.41;5021046;28;20072;-79
2023/12/20 02:44:22;;;;;;;6.25;5.78;;;;;;;1.93;100.00;100671.00;5029808;28;20497;-81
2023/12/20 02:46:48;;;;;;;4.70;1.90;;;;;;;1.98;100.00;100692.75;5013698;28;20061;-80
2023/12/20 02:49:13;;;;;;;4.97;4.68;;;;;;;1.90;100.00;100664.88;5034772;28;20029;-77
2023/12/20 02:51:39;;;;;;;71.50;17.92;;;;;;;1.90;100.00;100759.75;5034040;28;20103;-80
2023/12/20 02:54:05;;;;;;;1.17;1.08;;;;;;;1.68;100.00;100673.47;5027941;28;20054;-81
2023/12/20 02:56:35;;;;;;;2.25;2.15;;;;;;;2.38;100.00;100754.72;5027791;28;20108;-78
2023/12/20 02:59:01;;;;;;;5.03;4.63;;;;;;;2.31;100.00;100735.47;5023982;28;20042;-81
2023/12/20 03:01:27;;;;;;;4.90;4.53;;;;;;;2.45;100.00;100753.25;5037302;28;20578;-78
2023/12/20 03:03:53;;;;;;;7.30;6.78;;;;;;;2.50;100.00;100760.34;5035746;28;20037;-80
2023/12/20 03:06:19;;;;;;;3.00;2.85;;;;;;;2.37;100.00;100728.78;5038279;28;20045;-79
2023/12/20 03:08:45;;;;;;;1.95;1.85;;;;;;;2.07;100.00;100656.88;5032863;28;20041;-81
2023/12/20 03:11:11;;;;;;;5.20;4.85;;;;;;;2.47;100.00;100721.41;5008174;28;20045;-82
2023/12/20 03:13:37;;;;;;;3.92;3.72;;;;;;;2.40;100.00;100715.94;5021862;28;20044;-83
2023/12/20 03:16:13;;;;;;;5.55;5.25;;;;;;;1.87;100.00;100615.63;5023543;28;20400;-82
2023/12/20 03:18:39;;;;;;;2.80;2.58;;;;;;;2.55;100.00;100711.31;5032243;28;20762;-82
2023/12/20 03:21:05;;;;;;;6.22;5.97;;;;;;;2.35;100.00;100663.09;5021615;28;20065;-83
2023/12/20 03:23:32;;;;;;;6.07;5.65;;;;;;;2.50;100.00;100721.50;5023095;28;20049;-84
2023/12/20 03:25:58;;;;;;;0.60;0.60;;;;;;;2.00;100.00;100611.78;5035225;28;20470;-83
2023/12/20 03:28:24;;;;;;;10.18;9.15;;;;;;;2.52;100.00;100688.78;5027160;28;20029;-79
2023/12/20 03:30:50;;;;;;;1.15;1.15;;;;;;;2.44;100.00;100682.44;5025878;28;20044;-83
2023/12/20 03:33:15;;;;;;;11.05;5.38;;;;;;;2.51;100.00;100681.84;5031613;28;20077;-83
2023/12/20 03:35:41;;;;;;;0.95;0.93;;;;;;;2.11;100.00;100617.38;5035203;28;20499;-83
2023/12/20 03:38:07;;;;;;;1.98;1.88;;;;;;;1.98;100.00;100604.78;5024229;28;20054;-82
2023/12/20 03:40:34;;;;;;;1.05;1.05;;;;;;;1.64;100.00;100570.75;5020753;28;20072;-82
2023/12/20 03:42:59;;;;;;;3.15;2.95;;;;;;;1.76;100.00;100588.44;5034021;28;20068;-84
2023/12/20 03:45:25;;;;;;;12.77;12.07;;;;;;;2.52;100.00;100691.38;5013513;28;20108;-85
2023/12/20 03:47:54;;;;;;;2.00;1.90;;;;;;;2.36;100.00;100662.28;5029988;28;20508;-82
2023/12/20 03:50:22;;;;;;;6.25;5.85;;;;;;;1.92;100.00;100579.56;5034106;28;20056;-82
2023/12/20 03:52:48;;;;;;;9.07;6.20;;;;;;;1.99;100.00;100575.47;5033817;28;20045;-80
2023/12/20 03:55:13;;;;;;;5.07;4.78;;;;;;;1.83;100.00;100555.94;5032690;28;20047;-82
2023/12/20 03:57:39;;;;;;;4.95;4.70;;;;;;;2.27;100.00;100671.47;5030241;28;20056;-83
2023/12/20 04:00:10;;;;;;;2.00;1.83;;;;;;;1.59;100.00;100585.22;5034179;28;20055;-81
2023/12/20 04:02:36;;;;;;;10.77;8.23;;;;;;;2.23;100.00;100653.19;5039338;28;20049;-82
2023/12/20 04:05:02;;;;;;;2.22;2.13;;;;;;;1.86;100.00;100569.84;5025366;28;20053;-80
2023/12/20 04:07:27;;;;;;;8.75;8.35;;;;;;;2.35;100.00;100665.69;5020827;28;20096;-79
2023/12/20 04:09:53;;;;;;;8.45;7.82;;;;;;;2.45;100.00;100680.75;5034516;28;20158;-78
2023/12/20 04:12:18;;;;;;;9.55;9.05;;;;;;;2.08;100.00;100596.53;5028925;28;20045;-81
2023/12/20 04:14:44;;;;;;;5.80;5.40;;;;;;;2.55;100.00;100654.34;5034831;28;20471;-81
2023/12/20 04:17:09;;;;;;;2.30;1.65;;;;;;;2.61;100.00;100658.88;5031491;28;20045;-84
2023/12/20 04:19:35;;;;;;;4.07;3.83;;;;;;;2.32;100.00;100672.53;5025195;28;20033;-81
2023/12/20 04:22:00;;;;;;;2.30;2.20;;;;;;;1.86;100.00;100579.31;5036981;28;20026;-83
2023/12/20 04:24:26;;;;;;;3.17;3.05;;;;;;;2.04;100.00;100584.31;5025971;28;20044;-83
2023/12/20 04:26:51;;;;;;;68.80;19.77;;;;;;;2.30;100.00;100624.09;5021620;28;20061;-81
2023/12/20 04:29:17;;;;;;;9.82;9.30;;;;;;;2.07;100.00;100576.66;5025588;28;20069;-78
2023/12/20 04:31:44;;;;;;;7.63;6.95;;;;;;;1.73;100.00;100533.13;5023062;28;20055;-83
2023/12/20 04:34:10;;;;;;;2.10;1.27;;;;;;;1.97;100.00;100544.38;5037287;28;20037;-80
2023/12/20 04:36:35;;;;;;;15.95;14.73;;;;;;;1.89;100.00;100544.09;5030657;28;20088;-82
2023/12/20 04:39:01;;;;;;;4.45;4.25;;;;;;;1.11;100.00;100437.72;5020021;28;20451;-80
2023/12/20 04:41:27;;;;;;;5.28;4.90;;;;;;;2.18;100.00;100633.97;5026148;28;20060;-84
2023/12/20 04:43:53;;;;;;;4.38;3.97;;;;;;;1.96;100.00;100572.78;5025240;28;20449;-81
2023/12/20 04:46:18;;;;;;;4.38;4.00;;;;;;;1.74;100.00;100519.38;5011612;28;20039;-82
2023/12/20 04:48:44;;;;;;;10.27;9.70;;;;;;;2.20;100.00;100599.59;5025337;28;20136;-82
2023/12/20 04:51:09;;;;;;;4.63;4.40;;;;;;;1.88;100.00;100552.69;5029149;28;20080;-79
2023/12/20 04:53:35;;;;;;;0.65;0.65;;;;;;;2.33;100.00;100612.13;5034961;28;20098;-80
2023/12/20 04:56:00;;;;;;;5.28;4.85;;;;;;;1.77;100.00;100528.13;5026193;28;20053;-78
2023/12/20 04:58:26;;;;;;;3.72;3.45;;;;;;;2.37;100.00;100628.69;5028445;28;20489;-78
2023/12/20 05:00:52;;;;;;;4.55;4.25;;;;;;;2.33;100.00;100609.53;5031435;28;20110;-81
2023/12/20 05:03:17;;;;;;;26.63;11.35;;;;;;;2.33;100.00;100590.53;5036179;28;20504;-79
2023/12/20 05:05:43;;;;;;;0.82;0.82;;;;;;;2.27;100.00;100583.44;5028764;28;20053;-79
2023/12/20 05:08:08;;;;;;;5.97;5.57;;;;;;;1.84;100.00;100498.19;5024658;28;20045;-79
2023/12/20 05:10:34;;;;;;;1.95;1.85;;;;;;;2.11;100.00;100560.41;5033152;28;20025;-82
2023/12/20 05:13:00;;;;;;;3.88;3.67;;;;;;;1.79;100.00;100492.84;5024179;28;20034;-80
2023/12/20 05:15:25;;;;;;;6.03;5.68;;;;;;;2.04;100.00;100551.53;5034995;28;20045;-79
2023/12/20 05:17:51;;;;;;;2.53;2.42;;;;;;;2.31;100.00;100593.06;5033828;28;20057;-80
2023/12/20 05:20:16;;;;;;;2.33;2.20;;;;;;;1.75;100.00;100497.84;5027956;28;20042;-78
2023/12/20 05:22:42;;;;;;;23.13;14.65;;;;;;;2.16;100.00;100560.59;5028015;28;20578;-80
2023/12/20 05:25:07;;;;;;;7.60;6.15;;;;;;;2.33;100.00;100585.38;5025117;28;20935;-81
2023/12/20 05:27:33;;;;;;;5.53;5.22;;;;;;;2.19;100.00;100584.84;5016656;28;20096;-77
2023/12/20 05:29:58;;;;;;;2.88;2.72;;;;;;;2.22;100.00;100587.56;5032916;28;20064;-80
2023/12/20 05:32:25;;;;;;;5.25;4.97;;;;;;;2.14;100.00;100559.66;5028153;28;20803;-83
2023/12/20 05:34:50;;;;;;;4.13;3.92;;;;;;;2.08;100.00;100574.13;5033189;28;20364;-82
2023/12/20 05:37:16;;;;;;;11.13;10.55;;;;;;;2.15;100.00;100588.16;5028093;28;20571;-82
2023/12/20 05:39:41;;;;;;;1.00;1.00;;;;;;;1.98;100.00;100555.59;5027303;28;20083;-84
2023/12/20 05:42:07;;;;;;;1.23;1.20;;;;;;;1.54;100.00;100470.34;5029349;28;20093;-82
2023/12/20 05:44:32;;;;;;;3.10;2.33;;;;;;;2.15;100.00;100580.38;5024281;28;20048;-82
2023/12/20 05:46:59;;;;;;;6.07;2.08;;;;;;;2.07;100.00;100549.06;5034053;28;20473;-82
2023/12/20 05:49:24;;;;;;;5.88;5.45;;;;;;;2.01;100.00;100560.88;5030421;28;20045;-82
2023/12/20 05:51:51;;;;;;;4.75;4.45;;;;;;;2.08;100.00;100574.13;5021147;28;20045;-82
2023/12/20 05:54:16;;;;;;;4.53;4.22;;;;;;;1.05;100.00;100412.53;5025968;28;20164;-82
2023/12/20 05:56:42;;;;;;;5.35;4.10;;;;;;;1.37;100.00;100480.06;5027962;28;20554;-82
2023/12/20 05:59:07;;;;;;;1.42;1.33;;;;;;;2.08;100.00;100597.44;5034532;28;20053;-83
2023/12/20 06:01:33;;;;;;;4.60;4.30;;;;;;;1.38;100.00;100480.94;5023474;28;20025;-83
2023/12/20 06:03:59;;;;;;;3.53;3.33;;;;;;;1.19;100.00;100413.03;5022570;28;20095;-80
2023/12/20 06:06:24;;;;;;;2.75;2.58;;;;;;;2.12;100.00;100577.69;5011734;28;20136;-80
2023/12/20 06:08:50;;;;;;;2.63;2.53;;;;;;;1.68;100.00;100504.50;5005427;28;20571;-79
2023/12/20 06:11:15;;;;;;;0.43;0.43;;;;;;;2.20;100.00;100584.06;5024345;28;20073;-80
2023/12/20 06:13:41;;;;;;;1.35;1.35;;;;;;;1.48;100.00;100468.44;5026079;28;20128;-82
2023/12/20 06:16:09;;;;;;;14.68;6.53;;;;;;;2.11;100.00;100578.53;5021595;28;20062;-80
2023/12/20 06:18:36;;;;;;;5.20;4.90;;;;;;;1.57;100.00;100483.41;5028105;28;20061;-80
2023/12/20 06:21:02;;;;;;;11.15;10.38;;;;;;;1.98;100.00;100532.31;5012986;28;20057;-81
2023/12/20 06:23:28;;;;;;;0.60;0.60;;;;;;;1.76;100.00;100482.38;5032952;28;20072;-80
2023/12/20 06:25:53;;;;;;;1.35;1.25;;;;;;;2.06;100.00;100536.97;5026907;28;20049;-78
2023/12/20 06:28:19;;;;;;;7.18;6.53;;;;;;;2.25;100.00;100563.50;5025736;28;20032;-78
2023/12/20 06:30:45;;;;;;;15.95;14.70;;;;;;;2.40;100.00;100569.22;5030880;28;20528;-80
2023/12/20 06:33:11;;;;;;;6.57;6.18;;;;;;;2.42;100.00;100562.38;5027220;28;20172;-80
2023/12/20 06:35:37;;;;;;;1.60;1.50;;;;;;;2.38;100.00;100538.91;5027973;28;20060;-80
2023/12/20 06:38:04;;;;;;;17.90;9.73;;;;;;;2.35;100.00;100529.34;5037854;28;20045;-82
2023/12/20 06:40:30;;;;;;;2.40;2.30;;;;;;;2.24;100.00;100490.13;5032781;28;20053;-80
2023/12/20 06:42:56;;;;;;;1.15;1.15;;;;;;;2.29;100.00;100482.50;5035704;28;20091;-80
2023/12/20 06:45:21;;;;;;;9.73;8.98;;;;;;;2.60;100.00;100550.88;5025480;28;20065;-82
2023/12/20 06:47:47;;;;;;;5.05;4.75;;;;;;;2.26;100.00;100475.53;5030755;28;20533;-82
2023/12/20 06:50:12;;;;;;;1.95;1.60;;;;;;;2.56;100.00;100524.03;5018581;28;20584;-83
2023/12/20 06:52:38;;;;;;;0.63;0.63;;;;;;;2.02;100.00;100435.88;5015263;28;20041;-81
2023/12/20 06:55:04;;;;;;;5.28;4.97;;;;;;;1.72;100.00;100355.47;5031979;28;20543;-80
2023/12/20 06:57:30;;;;;;;5.18;4.80;;;;;;;2.04;100.00;100423.88;5032134;28;20386;-79
2023/12/20 06:59:55;;;;;;;0.95;0.93;;;;;;;2.51;100.00;100494.50;5028184;28;20055;-80
2023/12/20 07:02:22;;;;;;;2.05;1.50;;;;;;;2.62;100.00;100490.56;5021063;28;20041;-81
2023/12/20 07:04:48;;;;;;;0.63;0.60;;;;;;;2.58;100.00;100490.41;5014880;28;20053;-80
2023/12/20 07:07:13;;;;;;;5.78;5.47;;;;;;;2.26;100.00;100402.16;5022911;28;20029;-79
2023/12/20 07:09:40;;;;;;;8.50;8.07;;;;;;;1.74;100.00;100323.66;5033878;28;20556;-80
2023/12/20 07:12:08;;;;;;;1.08;1.08;;;;;;;2.80;100.00;100484.22;5037515;28;20481;-79
2023/12/20 07:14:33;;;;;;;3.10;2.90;;;;;;;2.64;100.00;100459.50;5036591;28;20067;-79
2023/12/20 07:16:59;;;;;;;2.20;1.02;;;;;;;2.46;100.00;100415.78;5029644;28;20497;-80
2023/12/20 07:19:24;;;;;;;3.35;3.15;;;;;;;2.40;100.00;100407.81;5028022;28;20036;-79
2023/12/20 07:21:50;;;;;;;6.20;5.60;;;;;;;2.79;100.00;100452.25;5026126;28;20061;-79
2023/12/20 07:24:15;;;;;;;3.85;3.70;;;;;;;3.12;100.00;100498.22;5031567;28;20424;-79
2023/12/20 07:26:41;;;;;;;2.47;2.38;;;;;;;2.61;100.00;100402.44;5020363;28;20148;-81
2023/12/20 07:29:07;;;;;;;0.88;0.88;;;;;;;2.50;100.00;100396.91;5031334;28;20115;-80
2023/12/20 07:31:32;;;;;;;13.25;10.82;;;;;;;2.54;100.00;100367.69;5029270;28;20040;-79
2023/12/20 07:33:58;;;;;;;1.30;1.23;;;;;;;3.14;100.00;100470.63;5026560;28;20083;-79
2023/12/20 07:36:23;;;;;;;4.82;4.53;;;;;;;2.57;100.00;100357.41;5033397;28;20041;-79
2023/12/20 07:38:49;;;;;;;11.32;10.77;;;;;;;3.03;100.00;100443.47;5026915;28;20441;-81
2023/12/20 07:41:15;;;;;;;2.45;2.35;;;;;;;2.59;100.00;100389.44;5027034;28;20124;-80
2023/12/20 07:43:42;;;;;;;0.50;0.45;;;;;;;1.97;100.00;100257.16;5023672;28;20152;-80
2023/12/20 07:46:08;;;;;;;3.20;3.10;;;;;;;3.21;100.00;100428.50;5029149;28;20044;-83
2023/12/20 07:48:39;;;;;;;1.65;1.55;;;;;;;2.45;100.00;100276.75;5032425;28;20060;-81
2023/12/20 07:51:07;;;;;;;12.30;11.18;;;;;;;2.32;100.00;100266.03;5039205;28;20148;-81
2023/12/20 07:53:33;;;;;;;0.93;0.93;;;;;;;3.46;100.00;100442.16;5035924;28;20056;-82
2023/12/20 07:55:58;;;;;;;2.28;1.42;;;;;;;3.04;100.00;100333.78;5033030;28;20128;-80
2023/12/20 07:58:24;;;;;;;1.60;1.52;;;;;;;3.37;100.00;100428.09;5008827;28;20067;-81
2023/12/20 08:00:49;;;;;;;0.85;0.85;;;;;;;3.52;100.00;100432.84;5034289;28;20033;-80
2023/12/20 08:03:15;;;;;;;1.65;1.55;;;;;;;2.94;100.00;100302.41;5033403;28;20072;-81
2023/12/20 08:05:40;;;;;;;0.40;0.40;;;;;;;3.00;100.00;100316.38;5022510;28;20478;-84
2023/12/20 08:08:06;;;;;;;0.38;0.38;;;;;;;3.53;100.00;100400.88;5029948;28;20053;-82
2023/12/20 08:10:32;;;;;;;9.70;9.07;;;;;;;3.91;100.00;100413.13;5026031;28;20041;-81
2023/12/20 08:12:57;;;;;;;5.43;4.95;;;;;;;3.93;100.00;100396.81;5028836;28;20485;-83
2023/12/20 08:15:23;;;;;;;4.78;4.53;;;;;;;3.47;100.00;100311.66;5027157;28;20096;-82
2023/12/20 08:17:50;;;;;;;5.40;5.13;;;;;;;4.00;100.00;100364.97;5027295;28;20107;-83
2023/12/20 08:20:17;;;;;;;0.60;0.60;;;;;;;3.67;100.00;100305.25;5025669;28;20106;-81
2023/12/20 08:22:42;;;;;;;1.42;1.35;;;;;;;3.41;100.00;100229.34;5024432;28;20077;-80
2023/12/20 08:25:08;;;;;;;1.35;1.35;;;;;;;4.25;100.00;100344.78;5031171;28;20049;-83
2023/12/20 08:27:38;;;;;;;2.90;2.78;;;;;;;4.39;100.00;100352.91;5017342;28;20133;-84
2023/12/20 08:30:04;;;;;;;3.72;3.50;;;;;;;4.73;100.00;100383.19;5020807;28;20045;-79
2023/12/20 08:32:32;;;;;;;0.88;0.82;;;;;;;4.76;100.00;100371.97;5027964;28;20048;-79
2023/12/20 08:34:57;;;;;;;1.27;1.17;;;;;;;4.92;100.00;100370.59;5031321;28;20424;-79
2023/12/20 08:37:23;;;;;;;2.00;1.90;;;;;;;5.23;100.00;100398.16;5026162;28;20036;-80
2023/12/20 08:39:48;;;;;;;3.90;3.60;;;;;;;5.39;100.00;100388.94;5017852;28;20025;-80
2023/12/20 08:42:14;;;;;;;0.70;0.70;;;;;;;5.58;100.00;100385.00;5014758;28;20045;-80
2023/12/20 08:44:39;;;;;;;2.38;2.28;;;;;;;5.23;100.00;100302.78;5024054;28;20042;-80
2023/12/20 08:47:05;;;;;;;4.25;4.13;;;;;;;5.77;100.00;100373.19;5025330;28;20060;-79
2023/12/20 08:49:31;;;;;;;1.10;1.00;;;;;;;5.15;100.00;100243.63;5024733;28;20400;-80
2023/12/20 08:51:56;;;;;;;1.33;1.25;;;;;;;5.80;100.00;100355.03;5024254;28;20081;-81
2023/12/20 08:54:22;;;;;;;3.47;3.22;;;;;;;6.04;100.00;100368.53;5021225;28;20049;-81
2023/12/20 08:56:47;;;;;;;0.32;0.32;;;;;;;5.93;100.00;100344.84;5017501;28;20087;-80
2023/12/20 08:59:13;;;;;;;6.45;6.13;;;;;;;6.01;100.00;100316.38;5023158;28;20041;-80
2023/12/20 09:01:38;;;;;;;1.50;1.40;;;;;;;5.74;100.00;100238.66;5020617;28;20033;-80
2023/12/20 09:04:04;;;;;;;2.30;2.10;;;;;;;6.04;100.00;100279.97;5004733;28;20041;-78
2023/12/20 09:06:29;;;;;;;4.70;4.43;;;;;;;5.50;100.00;100163.63;5012611;28;20065;-78
2023/12/20 09:08:55;;;;;;;4.07;3.85;;;;;;;5.94;100.00;100233.78;4998958;28;20049;-80
2023/12/20 09:11:22;;;;;;;7.93;7.47;;;;;;;5.63;100.00;100237.59;5025121;28;20111;-78
2023/12/20 09:13:47;;;;;;;3.58;3.38;;;;;;;6.43;100.00;100293.59;5019943;28;20046;-80
2023/12/20 09:16:15;;;;;;;10.35;9.38;;;;;;;5.97;100.00;100201.69;5020387;28;20478;-80
2023/12/20 09:18:41;;;;;;;3.92;3.70;;;;;;;6.47;100.00;100238.06;5017655;28;20119;-80
2023/12/20 09:21:07;;;;;;;6.57;6.18;;;;;;;6.92;100.00;100286.44;5024892;28;20046;-80
2023/12/20 09:23:33;;;;;;;3.60;3.40;;;;;;;6.47;100.00;100206.78;5010367;28;20512;-80
2023/12/20 09:25:58;;;;;;;11.55;10.93;;;;;;;6.88;100.00;100245.50;5018431;28;20156;-74
2023/12/20 09:28:25;;;;;;;2.05;1.95;;;;;;;6.75;100.00;100231.47;5011646;28;20048;-74
2023/12/20 09:30:52;;;;;;;6.68;6.35;;;;;;;6.53;100.00;100181.66;5018144;28;20037;-73
2023/12/20 09:33:18;;;;;;;4.72;4.47;;;;;;;6.74;100.00;100242.72;5024699;28;20049;-76
2023/12/20 09:35:43;;;;;;;31.40;26.60;;;;;;;7.10;100.00;100264.94;5019754;28;20112;-74
2023/12/20 09:38:09;;;;;;;4.10;3.80;;;;;;;6.61;100.00;100165.25;5025395;28;20405;-76
2023/12/20 09:40:36;;;;;;;13.75;9.23;;;;;;;6.70;100.00;100215.75;5021813;28;20046;-74
2023/12/20 09:43:08;;;;;;;3.13;2.95;;;;;;;6.67;100.00;100168.81;5017183;28;20025;-73
2023/12/20 09:45:34;;;;;;;2.47;2.28;;;;;;;6.86;100.00;100145.50;5014129;28;20053;-73
2023/12/20 09:48:00;;;;;;;2.28;2.08;;;;;;;7.46;100.00;100237.47;5020769;28;20638;-73
2023/12/20 09:50:26;;;;;;;6.85;6.20;;;;;;;7.32;100.00;100230.34;5015969;28;20531;-74
2023/12/20 09:52:53;;;;;;;7.40;7.07;;;;;;;7.19;100.00;100160.66;5019238;28;20053;-74
2023/12/20 09:55:20;;;;;;;6.50;6.20;;;;;;;7.44;100.00;100192.19;5022330;28;20041;-74
2023/12/20 09:57:47;;;;;;;23.65;10.68;;;;;;;7.60;100.00;100226.28;5015817;28;20171;-73
2023/12/20 10:00:14;;;;;;;4.50;4.10;;;;;;;7.20;100.00;100133.69;5020453;28;20041;-74
2023/12/20 10:02:56;;;;;;;1.58;1.30;;;;;;;7.61;100.00;100194.09;5020557;28;20072;-72
2023/12/20 10:05:27;;;;;;;5.60;5.20;;;;;;;7.53;100.00;100206.19;5017606;28;20053;-74
2023/12/20 10:07:53;;;;;;;3.22;3.03;;;;;;;6.81;100.00;100108.09;5012787;28;20099;-75
2023/12/20 10:10:18;;;;;;;16.40;6.55;;;;;;;7.52;100.00;100200.97;5018980;28;20033;-74
2023/12/20 10:13:04;;;;;;;2.17;1.77;;;;;;;7.44;100.00;100193.06;5023244;28;20514;-75
2023/12/20 10:15:29;;;;;;;2.63;2.47;;;;;;;7.10;100.00;100131.88;5013633;28;20077;-74
2023/12/20 10:17:57;;;;;;;2.65;1.38;;;;;;;7.21;100.00;100187.66;5021679;28;20088;-73
2023/12/20 10:20:23;;;;;;;1.20;1.10;;;;;;;7.02;100.00;100100.47;5020556;28;20041;-73
2023/12/20 10:22:49;;;;;;;7.68;7.10;;;;;;;7.16;100.00;100108.44;5023790;28;20103;-73
2023/12/20 10:25:15;;;;;;;1.58;1.48;;;;;;;7.21;100.00;100111.06;5020354;28;20054;-74
2023/12/20 10:27:42;;;;;;;3.33;2.55;;;;;;;7.61;100.00;100185.41;5014633;28;20046;-74
2023/12/20 10:30:08;;;;;;;5.43;5.15;;;;;;;7.17;100.00;100077.13;5024434;28;20065;-73
2023/12/20 10:32:33;;;;;;;2.25;2.05;;;;;;;7.63;100.00;100165.38;5017132;28;20550;-72
2023/12/20 10:34:59;;;;;;;0.73;0.73;;;;;;;7.94;100.00;100165.63;5028123;28;20053;-74
2023/12/20 10:37:25;;;;;;;3.22;3.03;;;;;;;7.56;100.00;100113.97;5023240;28;20037;-74
2023/12/20 10:39:56;;;;;;;5.25;4.97;;;;;;;7.86;100.00;100123.75;5031245;28;20046;-73
2023/12/20 10:42:30;;;;;;;2.65;2.50;;;;;;;7.40;100.00;100039.91;5033891;28;20053;-74
2023/12/20 10:44:56;;;;;;;1.05;1.05;;;;;;;7.20;100.00;100052.81;5022567;28;20542;-75
2023/12/20 10:47:22;;;;;;;11.75;10.63;;;;;;;7.48;100.00;100035.59;5025783;28;20131;-74
2023/12/20 10:49:49;;;;;;;7.50;7.10;;;;;;;7.83;100.00;100056.69;5038015;28;20048;-75
2023/12/20 10:52:20;;;;;;;8.40;7.80;;;;;;;7.89;100.00;100133.34;5019748;28;20040;-73
2023/12/20 10:54:46;;;;;;;2.40;2.20;;;;;;;7.67;100.00;100059.22;5011681;28;20050;-73
2023/12/20 10:57:13;;;;;;;13.15;11.82;;;;;;;7.40;100.00;99957.25;5014783;28;20069;-79
2023/12/20 10:59:39;;;;;;;1.67;1.58;;;;;;;8.53;100.00;100125.00;5026697;28;20318;-75
2023/12/20 11:02:05;;;;;;;12.13;10.98;;;;;;;8.45;100.00;100122.34;5021997;28;20062;-74
2023/12/20 11:04:55;;;;;;;1.75;1.58;;;;;;;8.31;100.00;100113.53;5036713;28;20397;-75
2023/12/20 11:07:32;;;;;;;2.30;1.55;;;;;;;8.16;100.00;100041.16;5032271;28;20129;-74
2023/12/20 11:10:03;;;;;;;0.75;0.75;;;;;;;7.89;100.00;100014.06;5030633;28;20567;-74
2023/12/20 11:12:39;;;;;;;3.85;3.47;;;;;;;8.55;100.00;100097.13;5034984;28;20045;-74
2023/12/20 11:15:07;;;;;;;0.80;0.80;;;;;;;8.33;100.00;100036.84;5013808;28;20565;-75
2023/12/20 11:17:33;;;;;;;1.30;1.20;;;;;;;8.76;100.00;100097.16;5027312;28;20042;-73